sensor_id;sensor_type;location;lat;lon;timestamp;P1;durP1;ratioP1;P2;durP2;ratioP2
1765;SDS011;880;52.452;8.656;2024-01-10T00:00:39;5.70;;;5.50;;
1765;SDS011;880;52.452;8.656;2024-01-10T00:03:06;6.03;;;5.60;;
1765;SDS011;880;52.452;8.656;2024-01-10T00:05:33;6.43;;;6.15;;
1765;SDS011;880;52.452;8.656;2024-01-10T00:08:00;6.28;;;5.78;;
1765;SDS011;880;52.452;8.656;2024-01-10T00:10:27;6.80;;;6.38;;
1765;SDS011;880;52.452;8.656;2024-01-10T00:12:54;6.10;;;5.72;;
1765;SDS011;880;52.452;8.656;2024-01-10T00:15:21;6.90;;;6.60;;
1765;SDS011;880;52.452;8.656;2024-01-10T00:17:48;6.47;;;6.13;;
1765;SDS011;880;52.452;8.656;2024-01-10T00:20:15;6.93;;;6.60;;
1765;SDS011;880;52.452;8.656;2024-01-10T00:22:43;7.30;;;6.75;;
1765;SDS011;880;52.452;8.656;2024-01-10T00:25:10;6.50;;;6.20;;
1765;SDS011;880;52.452;8.656;2024-01-10T00:27:37;6.53;;;6.28;;
1765;SDS011;880;52.452;8.656;2024-01-10T00:30:04;6.85;;;6.45;;
1765;SDS011;880;52.452;8.656;2024-01-10T00:32:35;6.20;;;5.93;;
1765;SDS011;880;52.452;8.656;2024-01-10T00:35:02;6.55;;;6.22;;
1765;SDS011;880;52.452;8.656;2024-01-10T00:37:29;6.35;;;6.07;;
1765;SDS011;880;52.452;8.656;2024-01-10T00:39:56;6.38;;;6.18;;
1765;SDS011;880;52.452;8.656;2024-01-10T00:42:23;6.00;;;5.78;;
1765;SDS011;880;52.452;8.656;2024-01-10T00:44:50;6.18;;;5.97;;
1765;SDS011;880;52.452;8.656;2024-01-10T00:47:17;6.97;;;6.55;;
1765;SDS011;880;52.452;8.656;2024-01-10T00:49:44;5.63;;;5.15;;
1765;SDS011;880;52.452;8.656;2024-01-10T00:52:11;6.72;;;6.38;;
1765;SDS011;880;52.452;8.656;2024-01-10T00:54:38;7.55;;;7.00;;
1765;SDS011;880;52.452;8.656;2024-01-10T00:57:05;6.97;;;6.45;;
1765;SDS011;880;52.452;8.656;2024-01-10T00:59:33;6.35;;;4.82;;
1765;SDS011;880;52.452;8.656;2024-01-10T01:02:00;7.32;;;6.93;;
1765;SDS011;880;52.452;8.656;2024-01-10T01:04:27;8.38;;;7.68;;
1765;SDS011;880;52.452;8.656;2024-01-10T01:06:54;6.88;;;6.63;;
1765;SDS011;880;52.452;8.656;2024-01-10T01:09:21;7.28;;;6.88;;
1765;SDS011;880;52.452;8.656;2024-01-10T01:11:48;7.30;;;6.82;;
1765;SDS011;880;52.452;8.656;2024-01-10T01:14:15;8.02;;;7.05;;
1765;SDS011;880;52.452;8.656;2024-01-10T01:16:42;7.00;;;6.70;;
1765;SDS011;880;52.452;8.656;2024-01-10T01:19:09;8.70;;;7.00;;
1765;SDS011;880;52.452;8.656;2024-01-10T01:21:36;8.02;;;7.30;;
1765;SDS011;880;52.452;8.656;2024-01-10T01:24:03;12.80;;;5.88;;
1765;SDS011;880;52.452;8.656;2024-01-10T01:26:30;5.75;;;5.55;;
1765;SDS011;880;52.452;8.656;2024-01-10T01:28:57;5.85;;;5.65;;
1765;SDS011;880;52.452;8.656;2024-01-10T01:31:24;6.90;;;6.40;;
1765;SDS011;880;52.452;8.656;2024-01-10T01:33:51;5.57;;;5.38;;
1765;SDS011;880;52.452;8.656;2024-01-10T01:36:18;7.72;;;7.15;;
1765;SDS011;880;52.452;8.656;2024-01-10T01:38:45;7.78;;;7.35;;
1765;SDS011;880;52.452;8.656;2024-01-10T01:41:12;8.07;;;7.47;;
1765;SDS011;880;52.452;8.656;2024-01-10T01:43:42;5.50;;;5.30;;
1765;SDS011;880;52.452;8.656;2024-01-10T01:46:09;8.32;;;7.82;;
1765;SDS011;880;52.452;8.656;2024-01-10T01:48:37;6.78;;;6.47;;
1765;SDS011;880;52.452;8.656;2024-01-10T01:51:05;6.53;;;6.03;;
1765;SDS011;880;52.452;8.656;2024-01-10T01:53:34;6.72;;;6.15;;
1765;SDS011;880;52.452;8.656;2024-01-10T01:56:06;6.30;;;6.10;;
1765;SDS011;880;52.452;8.656;2024-01-10T01:58:35;6.93;;;6.53;;
1765;SDS011;880;52.452;8.656;2024-01-10T02:01:04;7.32;;;6.75;;
1765;SDS011;880;52.452;8.656;2024-01-10T02:03:32;8.55;;;7.95;;
1765;SDS011;880;52.452;8.656;2024-01-10T02:06:00;7.60;;;7.05;;
1765;SDS011;880;52.452;8.656;2024-01-10T02:08:32;5.75;;;5.55;;
1765;SDS011;880;52.452;8.656;2024-01-10T02:11:01;6.60;;;6.28;;
1765;SDS011;880;52.452;8.656;2024-01-10T02:13:29;6.65;;;6.35;;
1765;SDS011;880;52.452;8.656;2024-01-10T02:15:59;4.85;;;4.65;;
1765;SDS011;880;52.452;8.656;2024-01-10T02:18:26;6.57;;;6.18;;
1765;SDS011;880;52.452;8.656;2024-01-10T02:20:54;5.97;;;5.72;;
1765;SDS011;880;52.452;8.656;2024-01-10T02:23:21;6.93;;;6.63;;
1765;SDS011;880;52.452;8.656;2024-01-10T02:25:48;7.05;;;6.47;;
1765;SDS011;880;52.452;8.656;2024-01-10T02:28:15;6.85;;;6.40;;
1765;SDS011;880;52.452;8.656;2024-01-10T02:30:42;7.00;;;6.53;;
1765;SDS011;880;52.452;8.656;2024-01-10T02:33:09;7.78;;;7.03;;
1765;SDS011;880;52.452;8.656;2024-01-10T02:35:36;7.53;;;6.78;;
1765;SDS011;880;52.452;8.656;2024-01-10T02:38:03;6.03;;;5.45;;
1765;SDS011;880;52.452;8.656;2024-01-10T02:40:32;7.20;;;6.28;;
1765;SDS011;880;52.452;8.656;2024-01-10T02:42:59;7.03;;;6.63;;
1765;SDS011;880;52.452;8.656;2024-01-10T02:45:26;7.97;;;7.35;;
1765;SDS011;880;52.452;8.656;2024-01-10T02:47:53;7.68;;;7.07;;
1765;SDS011;880;52.452;8.656;2024-01-10T02:50:20;6.82;;;6.38;;
1765;SDS011;880;52.452;8.656;2024-01-10T02:52:47;6.78;;;6.28;;
1765;SDS011;880;52.452;8.656;2024-01-10T02:55:15;16.58;;;7.30;;
1765;SDS011;880;52.452;8.656;2024-01-10T02:57:42;4.43;;;4.15;;
1765;SDS011;880;52.452;8.656;2024-01-10T03:00:09;8.05;;;7.50;;
1765;SDS011;880;52.452;8.656;2024-01-10T03:02:37;7.13;;;6.80;;
1765;SDS011;880;52.452;8.656;2024-01-10T03:05:04;5.30;;;5.00;;
1765;SDS011;880;52.452;8.656;2024-01-10T03:07:31;7.03;;;6.35;;
1765;SDS011;880;52.452;8.656;2024-01-10T03:09:59;6.38;;;6.07;;
1765;SDS011;880;52.452;8.656;2024-01-10T03:12:26;5.18;;;4.95;;
1765;SDS011;880;52.452;8.656;2024-01-10T03:14:53;8.35;;;7.85;;
1765;SDS011;880;52.452;8.656;2024-01-10T03:17:19;6.18;;;5.88;;
1765;SDS011;880;52.452;8.656;2024-01-10T03:19:47;7.53;;;7.00;;
1765;SDS011;880;52.452;8.656;2024-01-10T03:22:14;7.32;;;6.63;;
1765;SDS011;880;52.452;8.656;2024-01-10T03:24:41;7.32;;;6.80;;
1765;SDS011;880;52.452;8.656;2024-01-10T03:27:08;6.50;;;6.20;;
1765;SDS011;880;52.452;8.656;2024-01-10T03:29:35;7.90;;;7.22;;
1765;SDS011;880;52.452;8.656;2024-01-10T03:32:02;7.43;;;6.78;;
1765;SDS011;880;52.452;8.656;2024-01-10T03:34:29;7.57;;;7.00;;
1765;SDS011;880;52.452;8.656;2024-01-10T03:36:56;8.02;;;5.10;;
1765;SDS011;880;52.452;8.656;2024-01-10T03:39:23;6.38;;;6.07;;
1765;SDS011;880;52.452;8.656;2024-01-10T03:41:50;6.78;;;5.63;;
1765;SDS011;880;52.452;8.656;2024-01-10T03:44:17;7.78;;;6.18;;
1765;SDS011;880;52.452;8.656;2024-01-10T03:46:44;6.45;;;4.70;;
1765;SDS011;880;52.452;8.656;2024-01-10T03:49:11;6.70;;;6.25;;
1765;SDS011;880;52.452;8.656;2024-01-10T03:51:38;6.72;;;6.15;;
1765;SDS011;880;52.452;8.656;2024-01-10T03:54:07;8.07;;;7.57;;
1765;SDS011;880;52.452;8.656;2024-01-10T03:56:34;8.65;;;7.97;;
1765;SDS011;880;52.452;8.656;2024-01-10T03:59:01;7.72;;;7.18;;
1765;SDS011;880;52.452;8.656;2024-01-10T04:01:28;7.85;;;7.25;;
1765;SDS011;880;52.452;8.656;2024-01-10T04:03:55;16.00;;;8.23;;
1765;SDS011;880;52.452;8.656;2024-01-10T04:06:22;9.40;;;6.43;;
1765;SDS011;880;52.452;8.656;2024-01-10T04:08:50;8.07;;;7.55;;
1765;SDS011;880;52.452;8.656;2024-01-10T04:11:17;12.88;;;6.85;;
1765;SDS011;880;52.452;8.656;2024-01-10T04:13:44;7.80;;;7.30;;
1765;SDS011;880;52.452;8.656;2024-01-10T04:16:11;4.90;;;4.60;;
1765;SDS011;880;52.452;8.656;2024-01-10T04:18:39;6.25;;;5.95;;
1765;SDS011;880;52.452;8.656;2024-01-10T04:21:07;9.13;;;8.27;;
1765;SDS011;880;52.452;8.656;2024-01-10T04:23:35;9.63;;;8.82;;
1765;SDS011;880;52.452;8.656;2024-01-10T04:26:02;7.10;;;6.80;;
1765;SDS011;880;52.452;8.656;2024-01-10T04:28:29;7.88;;;7.35;;
1765;SDS011;880;52.452;8.656;2024-01-10T04:30:56;8.38;;;7.70;;
1765;SDS011;880;52.452;8.656;2024-01-10T04:33:24;8.80;;;8.10;;
1765;SDS011;880;52.452;8.656;2024-01-10T04:35:51;7.13;;;6.65;;
1765;SDS011;880;52.452;8.656;2024-01-10T04:38:18;8.50;;;7.90;;
1765;SDS011;880;52.452;8.656;2024-01-10T04:40:45;8.07;;;7.50;;
1765;SDS011;880;52.452;8.656;2024-01-10T04:43:12;8.38;;;7.72;;
1765;SDS011;880;52.452;8.656;2024-01-10T04:45:39;7.78;;;7.32;;
1765;SDS011;880;52.452;8.656;2024-01-10T04:48:06;20.38;;;9.25;;
1765;SDS011;880;52.452;8.656;2024-01-10T04:50:34;7.82;;;7.30;;
1765;SDS011;880;52.452;8.656;2024-01-10T04:53:02;10.43;;;7.65;;
1765;SDS011;880;52.452;8.656;2024-01-10T04:55:29;8.43;;;7.72;;
1765;SDS011;880;52.452;8.656;2024-01-10T04:57:56;6.80;;;6.40;;
1765;SDS011;880;52.452;8.656;2024-01-10T05:00:23;7.57;;;7.07;;
1765;SDS011;880;52.452;8.656;2024-01-10T05:02:50;7.45;;;7.07;;
1765;SDS011;880;52.452;8.656;2024-01-10T05:05:20;6.63;;;6.32;;
1765;SDS011;880;52.452;8.656;2024-01-10T05:07:50;11.50;;;9.20;;
1765;SDS011;880;52.452;8.656;2024-01-10T05:10:17;13.65;;;7.03;;
1765;SDS011;880;52.452;8.656;2024-01-10T05:12:44;6.65;;;6.25;;
1765;SDS011;880;52.452;8.656;2024-01-10T05:15:11;7.40;;;7.10;;
1765;SDS011;880;52.452;8.656;2024-01-10T05:17:38;10.27;;;9.52;;
1765;SDS011;880;52.452;8.656;2024-01-10T05:20:05;7.65;;;6.78;;
1765;SDS011;880;52.452;8.656;2024-01-10T05:22:34;9.00;;;7.75;;
1765;SDS011;880;52.452;8.656;2024-01-10T05:25:02;8.18;;;7.63;;
1765;SDS011;880;52.452;8.656;2024-01-10T05:27:30;7.43;;;6.97;;
1765;SDS011;880;52.452;8.656;2024-01-10T05:29:58;8.13;;;7.65;;
1765;SDS011;880;52.452;8.656;2024-01-10T05:32:26;11.27;;;10.32;;
1765;SDS011;880;52.452;8.656;2024-01-10T05:34:53;8.38;;;7.85;;
1765;SDS011;880;52.452;8.656;2024-01-10T05:37:21;8.63;;;8.20;;
1765;SDS011;880;52.452;8.656;2024-01-10T05:39:48;10.05;;;7.82;;
1765;SDS011;880;52.452;8.656;2024-01-10T05:42:16;9.45;;;8.57;;
1765;SDS011;880;52.452;8.656;2024-01-10T05:44:43;10.80;;;9.88;;
1765;SDS011;880;52.452;8.656;2024-01-10T05:47:10;10.77;;;10.05;;
1765;SDS011;880;52.452;8.656;2024-01-10T05:49:37;9.43;;;8.82;;
1765;SDS011;880;52.452;8.656;2024-01-10T05:52:04;8.80;;;8.20;;
1765;SDS011;880;52.452;8.656;2024-01-10T05:54:31;9.88;;;8.98;;
1765;SDS011;880;52.452;8.656;2024-01-10T05:56:58;8.35;;;7.85;;
1765;SDS011;880;52.452;8.656;2024-01-10T05:59:27;7.80;;;7.18;;
1765;SDS011;880;52.452;8.656;2024-01-10T06:01:55;9.18;;;8.55;;
1765;SDS011;880;52.452;8.656;2024-01-10T06:04:24;12.15;;;10.20;;
1765;SDS011;880;52.452;8.656;2024-01-10T06:06:51;8.55;;;8.15;;
1765;SDS011;880;52.452;8.656;2024-01-10T06:09:18;10.68;;;9.55;;
1765;SDS011;880;52.452;8.656;2024-01-10T06:11:48;12.45;;;11.05;;
1765;SDS011;880;52.452;8.656;2024-01-10T06:14:15;10.85;;;9.90;;
1765;SDS011;880;52.452;8.656;2024-01-10T06:16:43;10.80;;;9.85;;
1765;SDS011;880;52.452;8.656;2024-01-10T06:19:11;9.73;;;9.10;;
1765;SDS011;880;52.452;8.656;2024-01-10T06:21:38;7.72;;;7.18;;
1765;SDS011;880;52.452;8.656;2024-01-10T06:24:05;8.18;;;7.63;;
1765;SDS011;880;52.452;8.656;2024-01-10T06:26:34;9.52;;;8.63;;
1765;SDS011;880;52.452;8.656;2024-01-10T06:29:01;7.82;;;7.03;;
1765;SDS011;880;52.452;8.656;2024-01-10T06:31:28;9.80;;;9.10;;
1765;SDS011;880;52.452;8.656;2024-01-10T06:33:55;14.10;;;10.95;;
1765;SDS011;880;52.452;8.656;2024-01-10T06:36:22;10.35;;;8.02;;
1765;SDS011;880;52.452;8.656;2024-01-10T06:38:49;9.23;;;8.57;;
1765;SDS011;880;52.452;8.656;2024-01-10T06:41:16;8.98;;;8.45;;
1765;SDS011;880;52.452;8.656;2024-01-10T06:43:43;13.38;;;8.65;;
1765;SDS011;880;52.452;8.656;2024-01-10T06:46:10;6.65;;;6.30;;
1765;SDS011;880;52.452;8.656;2024-01-10T06:48:38;8.18;;;7.65;;
1765;SDS011;880;52.452;8.656;2024-01-10T06:51:14;8.18;;;7.63;;
1765;SDS011;880;52.452;8.656;2024-01-10T06:53:42;10.68;;;7.63;;
1765;SDS011;880;52.452;8.656;2024-01-10T06:56:09;7.32;;;6.93;;
1765;SDS011;880;52.452;8.656;2024-01-10T06:58:38;14.75;;;10.50;;
1765;SDS011;880;52.452;8.656;2024-01-10T07:01:10;11.15;;;7.95;;
1765;SDS011;880;52.452;8.656;2024-01-10T07:03:40;14.50;;;11.20;;
1765;SDS011;880;52.452;8.656;2024-01-10T07:06:07;8.98;;;8.38;;
1765;SDS011;880;52.452;8.656;2024-01-10T07:08:34;8.38;;;7.90;;
1765;SDS011;880;52.452;8.656;2024-01-10T07:11:01;13.40;;;9.95;;
1765;SDS011;880;52.452;8.656;2024-01-10T07:13:29;8.77;;;8.07;;
1765;SDS011;880;52.452;8.656;2024-01-10T07:15:57;10.82;;;9.95;;
1765;SDS011;880;52.452;8.656;2024-01-10T07:18:24;9.82;;;9.13;;
1765;SDS011;880;52.452;8.656;2024-01-10T07:20:52;9.82;;;9.20;;
1765;SDS011;880;52.452;8.656;2024-01-10T07:23:19;8.95;;;8.35;;
1765;SDS011;880;52.452;8.656;2024-01-10T07:25:49;12.20;;;10.38;;
1765;SDS011;880;52.452;8.656;2024-01-10T07:28:17;10.63;;;9.57;;
1765;SDS011;880;52.452;8.656;2024-01-10T07:30:44;9.02;;;8.15;;
1765;SDS011;880;52.452;8.656;2024-01-10T07:33:12;6.65;;;6.25;;
1765;SDS011;880;52.452;8.656;2024-01-10T07:35:40;9.93;;;9.13;;
1765;SDS011;880;52.452;8.656;2024-01-10T07:38:07;8.98;;;8.15;;
1765;SDS011;880;52.452;8.656;2024-01-10T07:40:34;8.77;;;8.27;;
1765;SDS011;880;52.452;8.656;2024-01-10T07:43:02;10.38;;;9.32;;
1765;SDS011;880;52.452;8.656;2024-01-10T07:45:30;9.48;;;8.77;;
1765;SDS011;880;52.452;8.656;2024-01-10T07:47:57;9.30;;;8.60;;
1765;SDS011;880;52.452;8.656;2024-01-10T07:50:24;24.40;;;11.65;;
1765;SDS011;880;52.452;8.656;2024-01-10T07:55:21;8.07;;;7.68;;
1765;SDS011;880;52.452;8.656;2024-01-10T07:57:48;9.82;;;9.32;;
1765;SDS011;880;52.452;8.656;2024-01-10T08:00:15;7.85;;;7.47;;
1765;SDS011;880;52.452;8.656;2024-01-10T08:05:13;11.40;;;9.73;;
1765;SDS011;880;52.452;8.656;2024-01-10T08:07:40;9.38;;;8.73;;
1765;SDS011;880;52.452;8.656;2024-01-10T08:10:08;13.25;;;9.00;;
1765;SDS011;880;52.452;8.656;2024-01-10T08:12:36;9.25;;;8.52;;
1765;SDS011;880;52.452;8.656;2024-01-10T08:15:05;8.55;;;7.95;;
1765;SDS011;880;52.452;8.656;2024-01-10T08:17:32;10.15;;;8.32;;
1765;SDS011;880;52.452;8.656;2024-01-10T08:19:59;9.60;;;8.85;;
1765;SDS011;880;52.452;8.656;2024-01-10T08:22:30;7.70;;;7.20;;
1765;SDS011;880;52.452;8.656;2024-01-10T08:24:57;9.93;;;8.80;;
1765;SDS011;880;52.452;8.656;2024-01-10T08:27:24;13.93;;;9.90;;
1765;SDS011;880;52.452;8.656;2024-01-10T08:29:51;10.25;;;9.48;;
1765;SDS011;880;52.452;8.656;2024-01-10T08:32:18;9.65;;;9.00;;
1765;SDS011;880;52.452;8.656;2024-01-10T08:34:48;10.40;;;9.60;;
1765;SDS011;880;52.452;8.656;2024-01-10T08:37:15;10.25;;;9.02;;
1765;SDS011;880;52.452;8.656;2024-01-10T08:39:47;12.02;;;10.00;;
1765;SDS011;880;52.452;8.656;2024-01-10T08:42:13;9.70;;;8.80;;
1765;SDS011;880;52.452;8.656;2024-01-10T08:44:41;10.18;;;9.32;;
1765;SDS011;880;52.452;8.656;2024-01-10T08:47:07;11.18;;;8.45;;
1765;SDS011;880;52.452;8.656;2024-01-10T08:49:34;8.77;;;7.97;;
1765;SDS011;880;52.452;8.656;2024-01-10T08:52:02;10.30;;;9.65;;
1765;SDS011;880;52.452;8.656;2024-01-10T08:54:30;9.77;;;9.13;;
1765;SDS011;880;52.452;8.656;2024-01-10T08:56:57;8.70;;;8.23;;
1765;SDS011;880;52.452;8.656;2024-01-10T08:59:25;10.48;;;9.88;;
1765;SDS011;880;52.452;8.656;2024-01-10T09:01:54;9.40;;;8.55;;
1765;SDS011;880;52.452;8.656;2024-01-10T09:04:21;11.23;;;10.40;;
1765;SDS011;880;52.452;8.656;2024-01-10T09:06:48;11.13;;;10.18;;
1765;SDS011;880;52.452;8.656;2024-01-10T09:09:15;12.02;;;11.00;;
1765;SDS011;880;52.452;8.656;2024-01-10T09:16:17;13.73;;;12.80;;
1765;SDS011;880;52.452;8.656;2024-01-10T09:18:47;12.57;;;11.82;;
1765;SDS011;880;52.452;8.656;2024-01-10T09:21:18;12.90;;;11.52;;
1765;SDS011;880;52.452;8.656;2024-01-10T09:23:47;11.32;;;10.27;;
1765;SDS011;880;52.452;8.656;2024-01-10T09:26:17;11.07;;;10.32;;
1765;SDS011;880;52.452;8.656;2024-01-10T09:28:45;10.48;;;9.68;;
1765;SDS011;880;52.452;8.656;2024-01-10T09:31:12;13.95;;;12.40;;
1765;SDS011;880;52.452;8.656;2024-01-10T09:33:39;11.27;;;10.27;;
1765;SDS011;880;52.452;8.656;2024-01-10T09:36:07;11.45;;;10.60;;
1765;SDS011;880;52.452;8.656;2024-01-10T09:38:37;11.48;;;9.55;;
1765;SDS011;880;52.452;8.656;2024-01-10T09:41:04;9.98;;;9.48;;
1765;SDS011;880;52.452;8.656;2024-01-10T09:43:32;13.68;;;12.57;;
1765;SDS011;880;52.452;8.656;2024-01-10T09:46:02;13.25;;;12.13;;
1765;SDS011;880;52.452;8.656;2024-01-10T09:48:31;15.52;;;11.45;;
1765;SDS011;880;52.452;8.656;2024-01-10T09:50:59;15.38;;;12.95;;
1765;SDS011;880;52.452;8.656;2024-01-10T09:53:26;10.82;;;10.05;;
1765;SDS011;880;52.452;8.656;2024-01-10T09:55:54;13.68;;;9.45;;
1765;SDS011;880;52.452;8.656;2024-01-10T09:58:26;12.60;;;11.38;;
1765;SDS011;880;52.452;8.656;2024-01-10T10:00:53;12.73;;;11.65;;
1765;SDS011;880;52.452;8.656;2024-01-10T10:03:21;11.88;;;10.68;;
1765;SDS011;880;52.452;8.656;2024-01-10T10:05:48;12.63;;;11.63;;
1765;SDS011;880;52.452;8.656;2024-01-10T10:08:15;12.15;;;10.93;;
1765;SDS011;880;52.452;8.656;2024-01-10T10:10:48;11.65;;;10.73;;
1765;SDS011;880;52.452;8.656;2024-01-10T10:13:25;13.50;;;12.20;;
1765;SDS011;880;52.452;8.656;2024-01-10T10:15:58;13.43;;;12.20;;
1765;SDS011;880;52.452;8.656;2024-01-10T10:18:29;13.82;;;12.43;;
1765;SDS011;880;52.452;8.656;2024-01-10T10:21:08;11.68;;;10.07;;
1765;SDS011;880;52.452;8.656;2024-01-10T10:23:41;14.85;;;13.15;;
1765;SDS011;880;52.452;8.656;2024-01-10T10:26:13;15.90;;;13.90;;
1765;SDS011;880;52.452;8.656;2024-01-10T10:28:49;16.08;;;11.98;;
1765;SDS011;880;52.452;8.656;2024-01-10T10:31:18;15.23;;;10.95;;
1765;SDS011;880;52.452;8.656;2024-01-10T10:33:48;14.50;;;13.07;;
1765;SDS011;880;52.452;8.656;2024-01-10T10:36:19;20.92;;;15.18;;
1765;SDS011;880;52.452;8.656;2024-01-10T10:38:49;21.85;;;16.00;;
1765;SDS011;880;52.452;8.656;2024-01-10T10:41:16;11.07;;;10.45;;
1765;SDS011;880;52.452;8.656;2024-01-10T10:43:45;15.90;;;14.45;;
1765;SDS011;880;52.452;8.656;2024-01-10T10:46:13;12.27;;;11.32;;
1765;SDS011;880;52.452;8.656;2024-01-10T10:48:40;12.70;;;11.43;;
1765;SDS011;880;52.452;8.656;2024-01-10T10:51:27;13.77;;;12.70;;
1765;SDS011;880;52.452;8.656;2024-01-10T10:54:03;15.40;;;13.85;;
1765;SDS011;880;52.452;8.656;2024-01-10T10:56:32;21.95;;;15.05;;
1765;SDS011;880;52.452;8.656;2024-01-10T10:59:04;15.95;;;14.38;;
1765;SDS011;880;52.452;8.656;2024-01-10T11:01:32;13.60;;;12.30;;
1765;SDS011;880;52.452;8.656;2024-01-10T11:04:00;13.43;;;12.13;;
1765;SDS011;880;52.452;8.656;2024-01-10T11:06:27;44.95;;;21.20;;
1765;SDS011;880;52.452;8.656;2024-01-10T11:08:59;33.25;;;19.13;;
1765;SDS011;880;52.452;8.656;2024-01-10T11:11:53;10.35;;;9.48;;
1765;SDS011;880;52.452;8.656;2024-01-10T11:17:38;10.82;;;9.00;;
1765;SDS011;880;52.452;8.656;2024-01-10T11:20:47;20.00;;;11.90;;
1765;SDS011;880;52.452;8.656;2024-01-10T11:23:33;14.77;;;12.35;;
1765;SDS011;880;52.452;8.656;2024-01-10T11:26:10;11.48;;;10.43;;
1765;SDS011;880;52.452;8.656;2024-01-10T11:28:39;13.57;;;11.15;;
1765;SDS011;880;52.452;8.656;2024-01-10T11:31:07;14.60;;;13.15;;
1765;SDS011;880;52.452;8.656;2024-01-10T11:33:44;14.23;;;13.07;;
1765;SDS011;880;52.452;8.656;2024-01-10T11:38:47;11.20;;;10.40;;
1765;SDS011;880;52.452;8.656;2024-01-10T11:41:38;16.40;;;13.82;;
1765;SDS011;880;52.452;8.656;2024-01-10T11:46:45;13.93;;;11.75;;
1765;SDS011;880;52.452;8.656;2024-01-10T11:49:14;23.70;;;15.48;;
1765;SDS011;880;52.452;8.656;2024-01-10T11:51:50;13.45;;;11.95;;
1765;SDS011;880;52.452;8.656;2024-01-10T11:54:38;18.27;;;13.85;;
1765;SDS011;880;52.452;8.656;2024-01-10T11:57:18;18.67;;;12.77;;
1765;SDS011;880;52.452;8.656;2024-01-10T11:59:56;13.55;;;12.32;;
1765;SDS011;880;52.452;8.656;2024-01-10T12:02:25;14.32;;;12.82;;
1765;SDS011;880;52.452;8.656;2024-01-10T12:04:54;12.15;;;11.15;;
1765;SDS011;880;52.452;8.656;2024-01-10T12:07:22;11.30;;;10.27;;
1765;SDS011;880;52.452;8.656;2024-01-10T12:09:51;12.07;;;11.18;;
1765;SDS011;880;52.452;8.656;2024-01-10T12:12:18;17.42;;;12.93;;
1765;SDS011;880;52.452;8.656;2024-01-10T12:14:45;20.55;;;13.80;;
1765;SDS011;880;52.452;8.656;2024-01-10T12:17:12;13.73;;;12.50;;
1765;SDS011;880;52.452;8.656;2024-01-10T12:19:40;16.63;;;12.38;;
1765;SDS011;880;52.452;8.656;2024-01-10T12:22:12;12.68;;;11.40;;
1765;SDS011;880;52.452;8.656;2024-01-10T12:24:42;15.35;;;12.20;;
1765;SDS011;880;52.452;8.656;2024-01-10T12:27:12;19.52;;;15.13;;
1765;SDS011;880;52.452;8.656;2024-01-10T12:29:39;14.73;;;13.20;;
1765;SDS011;880;52.452;8.656;2024-01-10T12:32:07;13.02;;;11.82;;
1765;SDS011;880;52.452;8.656;2024-01-10T12:34:38;18.33;;;11.10;;
1765;SDS011;880;52.452;8.656;2024-01-10T12:37:06;12.80;;;11.68;;
1765;SDS011;880;52.452;8.656;2024-01-10T12:39:33;11.85;;;11.05;;
1765;SDS011;880;52.452;8.656;2024-01-10T12:42:00;13.82;;;12.63;;
1765;SDS011;880;52.452;8.656;2024-01-10T12:44:29;14.55;;;12.95;;
1765;SDS011;880;52.452;8.656;2024-01-10T12:46:57;14.75;;;13.30;;
1765;SDS011;880;52.452;8.656;2024-01-10T12:49:26;13.98;;;12.60;;
1765;SDS011;880;52.452;8.656;2024-01-10T12:51:53;14.93;;;13.05;;
1765;SDS011;880;52.452;8.656;2024-01-10T12:54:20;14.65;;;13.15;;
1765;SDS011;880;52.452;8.656;2024-01-10T12:56:47;16.83;;;13.15;;
1765;SDS011;880;52.452;8.656;2024-01-10T12:59:15;12.55;;;11.55;;
1765;SDS011;880;52.452;8.656;2024-01-10T13:01:42;13.07;;;12.05;;
1765;SDS011;880;52.452;8.656;2024-01-10T13:04:09;16.25;;;14.13;;
1765;SDS011;880;52.452;8.656;2024-01-10T13:06:38;15.38;;;13.75;;
1765;SDS011;880;52.452;8.656;2024-01-10T13:09:06;15.20;;;13.63;;
1765;SDS011;880;52.452;8.656;2024-01-10T13:11:34;13.80;;;12.52;;
1765;SDS011;880;52.452;8.656;2024-01-10T13:14:02;13.73;;;12.63;;
1765;SDS011;880;52.452;8.656;2024-01-10T13:16:29;13.52;;;12.52;;
1765;SDS011;880;52.452;8.656;2024-01-10T13:19:00;12.45;;;11.15;;
1765;SDS011;880;52.452;8.656;2024-01-10T13:21:28;14.80;;;13.27;;
1765;SDS011;880;52.452;8.656;2024-01-10T13:23:55;18.88;;;13.38;;
1765;SDS011;880;52.452;8.656;2024-01-10T13:26:22;13.02;;;11.68;;
1765;SDS011;880;52.452;8.656;2024-01-10T13:28:49;13.57;;;11.77;;
1765;SDS011;880;52.452;8.656;2024-01-10T13:31:17;13.65;;;12.57;;
1765;SDS011;880;52.452;8.656;2024-01-10T13:33:44;12.85;;;11.68;;
1765;SDS011;880;52.452;8.656;2024-01-10T13:36:13;16.42;;;13.48;;
1765;SDS011;880;52.452;8.656;2024-01-10T13:38:41;12.35;;;11.18;;
1765;SDS011;880;52.452;8.656;2024-01-10T13:41:08;13.00;;;12.02;;
1765;SDS011;880;52.452;8.656;2024-01-10T13:43:35;19.35;;;13.30;;
1765;SDS011;880;52.452;8.656;2024-01-10T13:46:02;17.88;;;14.32;;
1765;SDS011;880;52.452;8.656;2024-01-10T13:48:34;13.18;;;11.93;;
1765;SDS011;880;52.452;8.656;2024-01-10T13:51:02;16.27;;;13.70;;
1765;SDS011;880;52.452;8.656;2024-01-10T13:53:29;17.73;;;14.23;;
1765;SDS011;880;52.452;8.656;2024-01-10T13:55:56;12.77;;;11.50;;
1765;SDS011;880;52.452;8.656;2024-01-10T13:58:23;16.25;;;14.55;;
1765;SDS011;880;52.452;8.656;2024-01-10T14:00:51;17.70;;;13.55;;
1765;SDS011;880;52.452;8.656;2024-01-10T14:03:18;13.88;;;11.93;;
1765;SDS011;880;52.452;8.656;2024-01-10T14:05:45;13.90;;;12.70;;
1765;SDS011;880;52.452;8.656;2024-01-10T14:08:12;13.45;;;12.25;;
1765;SDS011;880;52.452;8.656;2024-01-10T14:10:39;12.80;;;11.90;;
1765;SDS011;880;52.452;8.656;2024-01-10T14:13:08;18.13;;;13.90;;
1765;SDS011;880;52.452;8.656;2024-01-10T14:15:35;22.48;;;13.50;;
1765;SDS011;880;52.452;8.656;2024-01-10T14:18:02;16.80;;;15.07;;
1765;SDS011;880;52.452;8.656;2024-01-10T14:20:29;12.27;;;11.55;;
1765;SDS011;880;52.452;8.656;2024-01-10T14:22:57;16.27;;;12.52;;
1765;SDS011;880;52.452;8.656;2024-01-10T14:25:28;15.65;;;12.43;;
1765;SDS011;880;52.452;8.656;2024-01-10T14:27:55;17.23;;;15.45;;
1765;SDS011;880;52.452;8.656;2024-01-10T14:30:22;25.00;;;16.27;;
1765;SDS011;880;52.452;8.656;2024-01-10T14:32:51;15.15;;;13.73;;
1765;SDS011;880;52.452;8.656;2024-01-10T14:35:18;16.20;;;13.30;;
1765;SDS011;880;52.452;8.656;2024-01-10T14:37:46;15.82;;;14.05;;
1765;SDS011;880;52.452;8.656;2024-01-10T14:40:13;13.45;;;11.93;;
1765;SDS011;880;52.452;8.656;2024-01-10T14:42:40;19.52;;;13.10;;
1765;SDS011;880;52.452;8.656;2024-01-10T14:45:07;15.13;;;13.43;;
1765;SDS011;880;52.452;8.656;2024-01-10T14:47:35;18.35;;;12.35;;
1765;SDS011;880;52.452;8.656;2024-01-10T14:50:02;16.10;;;14.48;;
1765;SDS011;880;52.452;8.656;2024-01-10T14:52:29;15.70;;;14.30;;
1765;SDS011;880;52.452;8.656;2024-01-10T14:54:57;14.32;;;12.80;;
1765;SDS011;880;52.452;8.656;2024-01-10T14:57:23;20.55;;;14.75;;
1765;SDS011;880;52.452;8.656;2024-01-10T14:59:50;16.63;;;15.27;;
1765;SDS011;880;52.452;8.656;2024-01-10T15:02:17;18.48;;;14.52;;
1765;SDS011;880;52.452;8.656;2024-01-10T15:04:46;16.08;;;14.73;;
1765;SDS011;880;52.452;8.656;2024-01-10T15:07:13;21.52;;;14.85;;
1765;SDS011;880;52.452;8.656;2024-01-10T15:09:42;12.10;;;11.30;;
1765;SDS011;880;52.452;8.656;2024-01-10T15:12:09;18.50;;;12.90;;
1765;SDS011;880;52.452;8.656;2024-01-10T15:14:37;18.80;;;14.65;;
1765;SDS011;880;52.452;8.656;2024-01-10T15:17:05;13.75;;;12.35;;
1765;SDS011;880;52.452;8.656;2024-01-10T15:19:37;30.98;;;16.90;;
1765;SDS011;880;52.452;8.656;2024-01-10T15:22:05;18.35;;;16.50;;
1765;SDS011;880;52.452;8.656;2024-01-10T15:24:34;29.45;;;18.08;;
1765;SDS011;880;52.452;8.656;2024-01-10T15:27:01;22.30;;;17.27;;
1765;SDS011;880;52.452;8.656;2024-01-10T15:29:35;18.35;;;14.75;;
1765;SDS011;880;52.452;8.656;2024-01-10T15:32:03;28.30;;;14.77;;
1765;SDS011;880;52.452;8.656;2024-01-10T15:34:31;17.63;;;13.85;;
1765;SDS011;880;52.452;8.656;2024-01-10T15:36:58;21.77;;;15.95;;
1765;SDS011;880;52.452;8.656;2024-01-10T15:39:25;14.95;;;13.23;;